Terminal Aerodrome Forecast
Issued by NWS Jacksonville, FL

Home | Current Version | Previous Version | Text Only | Print | Product List | Glossary On
Versions: 1 2 3 4 5 6 7 8 9 10 11 12 13 14 15 16 17 18 19
079
FTUS42 KJAX 041224 AAA
TAFGNV
TAF AMD
KGNV 041224Z 0412/0512 24004KT P6SM VCTS BKN015 BKN035CB OVC100
      TEMPO 0412/0413 VRB15G25KT 3SM +TSRA BR BKN030CB OVC070
     FM041600 29010KT P6SM SCT020 BKN040 OVC100
     FM042100 29007KT P6SM SCT040 SCT150=

USA.gov is the U.S. government's official web portal to all federal, state and local government web resources and services.